createdAt,value
2022-08-17T00:02:25.455Z,3.35
2022-08-17T00:04:54.226Z,3.90
2022-08-17T00:07:21.091Z,3.50
2022-08-17T00:09:47.859Z,4.00
2022-08-17T00:12:43.284Z,4.03
2022-08-17T00:15:01.405Z,3.55
2022-08-17T00:17:30.678Z,3.80
2022-08-17T00:19:57.432Z,3.33
2022-08-17T00:22:34.430Z,3.95
2022-08-17T00:25:07.355Z,3.80
2022-08-17T00:27:34.731Z,3.72
2022-08-17T00:30:01.517Z,3.85
2022-08-17T00:33:15.280Z,3.38
2022-08-17T00:35:18.418Z,3.40
2022-08-17T00:37:45.341Z,3.78
2022-08-17T00:40:14.678Z,3.80
2022-08-17T00:42:42.782Z,3.42
2022-08-17T00:45:12.333Z,3.67
2022-08-17T00:47:39.435Z,3.70
2022-08-17T00:50:09.112Z,3.60
2022-08-17T00:52:41.456Z,4.00
2022-08-17T00:55:08.923Z,3.38
2022-08-17T00:57:42.415Z,4.00
2022-08-17T01:00:17.282Z,4.35
2022-08-17T01:02:47.232Z,4.60
2022-08-17T01:05:26.428Z,4.15
2022-08-17T01:07:55.349Z,4.80
2022-08-17T01:10:59.609Z,3.85
2022-08-17T01:13:25.936Z,4.15
2022-08-17T01:16:02.163Z,4.30
2022-08-17T01:18:29.148Z,4.43
2022-08-17T01:20:59.023Z,4.90
2022-08-17T01:23:28.940Z,5.13
2022-08-17T01:26:01.495Z,4.88
2022-08-17T01:28:55.058Z,4.40
2022-08-17T01:31:21.987Z,4.70
2022-08-17T01:33:48.745Z,4.80
2022-08-17T01:36:15.516Z,4.72
2022-08-17T01:38:42.290Z,4.63
2022-08-17T01:41:13.697Z,4.18
2022-08-17T01:43:54.916Z,4.70
2022-08-17T01:46:25.004Z,5.20
2022-08-17T01:48:51.884Z,5.20
2022-08-17T01:51:20.016Z,4.18
2022-08-17T01:53:53.802Z,4.53
2022-08-17T01:56:23.501Z,4.45
2022-08-17T01:58:50.583Z,4.20
2022-08-17T02:01:20.219Z,4.68
2022-08-17T02:03:59.680Z,4.25
2022-08-17T02:06:52.675Z,4.13
2022-08-17T02:09:29.649Z,4.50
2022-08-17T02:11:59.307Z,4.78
2022-08-17T02:14:26.967Z,4.95
2022-08-17T02:16:54.353Z,4.55
2022-08-17T02:19:22.052Z,4.07
2022-08-17T02:21:51.588Z,4.30
2022-08-17T02:25:01.043Z,4.32
2022-08-17T02:27:19.746Z,4.40
2022-08-17T02:29:46.516Z,4.50
2022-08-17T02:32:25.289Z,4.72
2022-08-17T02:34:55.464Z,5.13
2022-08-17T02:37:22.301Z,5.00
2022-08-17T02:39:49.013Z,5.15
2022-08-17T02:42:15.807Z,4.95
2022-08-17T02:44:42.664Z,5.22
2022-08-17T02:47:11.160Z,5.25
2022-08-17T02:49:38.238Z,5.10
2022-08-17T02:52:07.556Z,4.80
2022-08-17T02:54:41.221Z,4.50
2022-08-17T02:57:10.236Z,5.07
2022-08-17T02:59:38.346Z,4.50
2022-08-17T03:02:08.248Z,4.93
2022-08-17T03:04:35.488Z,7.47
2022-08-17T03:07:05.459Z,4.72
2022-08-17T03:09:32.342Z,4.53
2022-08-17T03:12:12.492Z,5.80
2022-08-17T03:14:43.762Z,4.45
2022-08-17T03:17:11.274Z,6.93
2022-08-17T03:19:44.365Z,4.82
2022-08-17T03:22:36.246Z,7.40
2022-08-17T03:24:58.101Z,11.18
2022-08-17T03:27:24.793Z,6.38
2022-08-17T03:29:55.292Z,5.28
2022-08-17T03:32:22.111Z,4.82
2022-08-17T03:34:51.791Z,5.10
2022-08-17T03:37:18.648Z,4.90
2022-08-17T03:39:45.383Z,4.10
2022-08-17T03:42:31.835Z,5.93
2022-08-17T03:45:00.401Z,5.18
2022-08-17T03:47:45.779Z,4.45
2022-08-17T03:50:32.817Z,5.13
2022-08-17T03:53:18.275Z,4.97
2022-08-17T03:56:03.373Z,6.90
2022-08-17T03:58:30.167Z,5.20
2022-08-17T04:00:57.047Z,4.88
2022-08-17T04:03:23.860Z,5.22
2022-08-17T04:05:50.644Z,4.40
2022-08-17T04:08:17.352Z,4.97
2022-08-17T04:10:44.883Z,4.85
2022-08-17T04:13:12.971Z,5.65
2022-08-17T04:15:40.102Z,5.15
2022-08-17T04:18:07.741Z,5.90
2022-08-17T04:20:37.818Z,10.82
2022-08-17T04:23:10.487Z,7.18
2022-08-17T04:25:41.733Z,8.20
2022-08-17T04:28:15.521Z,6.95
2022-08-17T04:30:45.394Z,5.20
2022-08-17T04:33:18.097Z,4.20
2022-08-17T04:35:49.032Z,5.00
2022-08-17T04:38:18.387Z,4.43
2022-08-17T04:41:03.571Z,4.47
2022-08-17T04:43:32.383Z,10.68
2022-08-17T04:46:02.363Z,5.07
2022-08-17T04:48:36.381Z,4.38
2022-08-17T04:51:26.343Z,8.00
2022-08-17T04:53:57.002Z,5.43
2022-08-17T04:56:26.123Z,4.82
2022-08-17T04:58:57.096Z,5.75
2022-08-17T05:01:28.215Z,5.55
2022-08-17T05:03:59.059Z,4.47
2022-08-17T05:06:27.605Z,5.53
2022-08-17T05:08:55.175Z,5.50
2022-08-17T05:11:23.331Z,4.93
2022-08-17T05:13:50.445Z,5.93
2022-08-17T05:16:18.151Z,5.68
2022-08-17T05:18:45.053Z,4.63
2022-08-17T05:21:11.871Z,4.05
2022-08-17T05:23:43.087Z,4.70
2022-08-17T05:26:22.562Z,5.15
2022-08-17T05:28:59.557Z,5.45
2022-08-17T05:31:29.012Z,5.30
2022-08-17T05:33:56.318Z,4.82
2022-08-17T05:36:41.963Z,4.60
2022-08-17T05:39:10.766Z,4.85
2022-08-17T05:44:10.951Z,4.93
2022-08-17T05:46:42.009Z,4.82
2022-08-17T05:49:08.942Z,5.00
2022-08-17T05:51:50.028Z,6.60
2022-08-17T05:54:19.591Z,6.63
2022-08-17T05:57:06.988Z,5.28
2022-08-17T06:00:01.033Z,7.95
2022-08-17T06:02:48.026Z,7.63
2022-08-17T06:05:15.231Z,5.85
2022-08-17T06:08:02.592Z,6.40
2022-08-17T06:10:38.293Z,5.15
2022-08-17T06:13:59.336Z,7.50
2022-08-17T06:16:34.275Z,7.53
2022-08-17T06:19:06.430Z,6.05
2022-08-17T06:21:39.715Z,7.47
2022-08-17T06:24:20.966Z,5.95
2022-08-17T06:26:48.571Z,7.13
2022-08-17T06:29:35.140Z,5.90
2022-08-17T06:32:03.344Z,5.18
2022-08-17T06:34:30.126Z,5.03
2022-08-17T06:37:25.239Z,5.90
2022-08-17T06:40:01.169Z,5.85
2022-08-17T06:43:06.577Z,5.55
2022-08-17T06:45:49.378Z,5.28
2022-08-17T06:48:25.503Z,7.38
2022-08-17T06:51:00.078Z,5.65
2022-08-17T06:53:42.481Z,5.30
2022-08-17T06:56:11.884Z,6.40
2022-08-17T06:58:41.338Z,10.18
2022-08-17T07:01:23.324Z,8.45
2022-08-17T07:04:11.916Z,10.23
2022-08-17T07:06:54.643Z,5.60
2022-08-17T07:09:51.444Z,5.25
2022-08-17T07:12:22.837Z,5.72
2022-08-17T07:14:54.477Z,5.18
2022-08-17T07:17:47.045Z,5.90
2022-08-17T07:20:15.171Z,5.65
2022-08-17T07:22:51.923Z,5.75
2022-08-17T07:25:26.451Z,7.05
2022-08-17T07:27:59.886Z,6.30
2022-08-17T07:30:51.284Z,6.82
2022-08-17T07:33:24.430Z,17.50
2022-08-17T07:35:51.348Z,8.00
2022-08-17T07:38:33.315Z,7.13
2022-08-17T07:41:05.398Z,7.53
2022-08-17T07:43:40.978Z,8.63
2022-08-17T07:46:47.617Z,7.22
2022-08-17T07:49:14.174Z,6.95
2022-08-17T07:51:43.987Z,7.70
2022-08-17T07:54:22.701Z,6.55
2022-08-17T07:57:03.468Z,6.45
2022-08-17T07:59:35.586Z,6.90
2022-08-17T08:02:16.347Z,7.95
2022-08-17T08:05:00.488Z,7.53
2022-08-17T08:07:38.327Z,7.20
2022-08-17T08:10:10.834Z,6.97
2022-08-17T08:12:39.652Z,7.05
2022-08-17T08:15:17.806Z,7.43
2022-08-17T08:17:55.510Z,7.40
2022-08-17T08:20:52.910Z,7.32
2022-08-17T08:23:29.634Z,7.55
2022-08-17T08:26:31.778Z,7.07
2022-08-17T08:29:08.403Z,6.80
2022-08-17T08:32:02.727Z,8.50
2022-08-17T08:37:47.295Z,7.60
2022-08-17T08:40:42.987Z,7.50
2022-08-17T08:44:06.526Z,6.90
2022-08-17T08:46:54.143Z,8.02
2022-08-17T08:50:06.113Z,6.60
2022-08-17T08:52:40.049Z,6.75
2022-08-17T08:55:34.798Z,9.77
2022-08-17T08:58:31.563Z,9.20
2022-08-17T09:00:58.831Z,6.50
2022-08-17T09:03:52.357Z,6.70
2022-08-17T09:06:47.825Z,6.88
2022-08-17T09:09:39.053Z,11.45
2022-08-17T09:12:16.884Z,7.57
2022-08-17T09:14:57.565Z,6.97
2022-08-17T09:17:33.409Z,6.88
2022-08-17T09:20:27.603Z,6.40
2022-08-17T09:23:07.160Z,8.20
2022-08-17T09:25:45.502Z,6.90
2022-08-17T09:28:20.420Z,6.80
2022-08-17T09:30:53.661Z,6.60
2022-08-17T09:33:26.885Z,7.80
2022-08-17T09:36:16.483Z,6.97
2022-08-17T09:38:49.314Z,13.80
2022-08-17T09:41:53.309Z,6.87
2022-08-17T09:44:32.191Z,6.35
2022-08-17T09:47:46.805Z,10.65
2022-08-17T09:50:20.176Z,8.20
2022-08-17T09:53:08.008Z,8.15
2022-08-17T09:55:59.282Z,7.45
2022-08-17T09:58:38.997Z,8.23
2022-08-17T10:01:16.678Z,7.90
2022-08-17T10:03:51.049Z,8.70
2022-08-17T10:06:33.877Z,6.63
2022-08-17T10:09:10.464Z,6.78
2022-08-17T10:12:00.530Z,9.45
2022-08-17T10:14:44.439Z,7.75
2022-08-17T10:17:21.634Z,7.28
2022-08-17T10:20:01.183Z,7.78
2022-08-17T10:23:21.083Z,9.05
2022-08-17T10:26:14.558Z,6.80
2022-08-17T10:28:53.263Z,6.97
2022-08-17T10:31:36.565Z,6.85
2022-08-17T10:34:27.301Z,8.30
2022-08-17T10:37:19.825Z,6.97
2022-08-17T10:40:32.569Z,8.00
2022-08-17T10:42:59.356Z,8.38
2022-08-17T10:45:46.099Z,8.00
2022-08-17T10:48:14.001Z,7.80
2022-08-17T10:50:49.702Z,7.80
2022-08-17T10:53:31.913Z,7.90
2022-08-17T10:56:13.954Z,7.22
2022-08-17T10:59:07.246Z,6.50
2022-08-17T11:01:42.173Z,7.67
2022-08-17T11:04:45.698Z,6.95
2022-08-17T11:07:19.159Z,7.30
2022-08-17T11:10:08.617Z,8.50
2022-08-17T11:12:44.212Z,8.95
2022-08-17T11:15:32.379Z,6.95
2022-08-17T11:18:01.526Z,6.88
2022-08-17T11:20:41.455Z,6.70
2022-08-17T11:23:32.694Z,6.25
2022-08-17T11:26:09.431Z,7.32
2022-08-17T11:28:48.696Z,8.98
2022-08-17T11:31:40.190Z,7.05
2022-08-17T11:34:26.516Z,7.10
2022-08-17T11:36:53.309Z,6.90
2022-08-17T11:39:39.739Z,7.68
2022-08-17T11:42:34.440Z,6.93
2022-08-17T11:45:38.610Z,8.02
2022-08-17T11:48:44.555Z,6.95
2022-08-17T11:51:40.593Z,9.25
2022-08-17T11:54:33.450Z,8.35
2022-08-17T11:57:21.612Z,6.47
2022-08-17T11:59:48.376Z,8.48
2022-08-17T12:05:14.356Z,7.38
2022-08-17T12:08:07.505Z,8.20
2022-08-17T12:10:58.898Z,8.30
2022-08-17T12:13:30.608Z,8.80
2022-08-17T12:16:05.818Z,8.15
2022-08-17T12:18:37.418Z,7.70
2022-08-17T12:21:28.690Z,7.80
2022-08-17T12:24:15.619Z,7.95
2022-08-17T12:26:44.239Z,7.78
2022-08-17T12:29:38.932Z,6.78
2022-08-17T12:32:13.143Z,7.00
2022-08-17T12:34:43.439Z,7.85
2022-08-17T12:37:24.982Z,6.85
2022-08-17T12:40:24.780Z,7.90
2022-08-17T12:43:18.674Z,7.10
2022-08-17T12:45:54.019Z,7.10
2022-08-17T12:48:26.302Z,7.60
2022-08-17T12:51:00.948Z,7.35
2022-08-17T12:53:35.252Z,8.18
2022-08-17T12:56:07.906Z,7.95
2022-08-17T12:58:45.735Z,8.47
2022-08-17T13:01:18.594Z,13.85
2022-08-17T13:03:52.818Z,8.63
2022-08-17T13:07:00.075Z,7.75
2022-08-17T13:09:35.257Z,9.02
2022-08-17T13:12:05.089Z,8.55
2022-08-17T13:14:33.373Z,7.63
2022-08-17T13:17:02.587Z,7.85
2022-08-17T13:19:40.360Z,7.72
2022-08-17T13:22:12.463Z,7.55
2022-08-17T13:24:53.234Z,7.60
2022-08-17T13:27:23.901Z,7.20
2022-08-17T13:29:54.170Z,7.50
2022-08-17T13:32:32.851Z,7.05
2022-08-17T13:35:11.931Z,7.88
2022-08-17T13:37:43.402Z,7.30
2022-08-17T13:40:12.731Z,7.13
2022-08-17T13:42:51.822Z,8.52
2022-08-17T13:45:35.637Z,10.10
2022-08-17T13:48:07.396Z,7.97
2022-08-17T13:50:36.228Z,8.63
2022-08-17T13:53:15.022Z,8.40
2022-08-17T13:55:48.958Z,9.07
2022-08-17T13:58:21.975Z,7.18
2022-08-17T14:00:50.754Z,7.28
2022-08-17T14:03:18.182Z,6.88
2022-08-17T14:05:46.138Z,7.35
2022-08-17T14:08:15.722Z,7.15
2022-08-17T14:10:43.733Z,7.38
2022-08-17T14:13:10.873Z,7.63
2022-08-17T14:15:56.124Z,9.00
2022-08-17T14:18:31.135Z,8.32
2022-08-17T14:21:10.761Z,7.53
2022-08-17T14:23:37.711Z,8.52
2022-08-17T14:26:04.954Z,8.43
2022-08-17T14:28:32.085Z,7.75
2022-08-17T14:31:00.447Z,7.53
2022-08-17T14:33:28.710Z,9.35
2022-08-17T14:35:56.069Z,10.15
2022-08-17T14:38:22.862Z,8.15
2022-08-17T14:40:49.863Z,7.97
2022-08-17T14:43:17.992Z,10.07
2022-08-17T14:45:48.002Z,9.77
2022-08-17T14:48:14.834Z,10.48
2022-08-17T14:50:43.565Z,14.18
2022-08-17T14:53:13.705Z,9.30
2022-08-17T14:55:43.063Z,9.60
2022-08-17T14:58:10.457Z,8.40
2022-08-17T15:00:43.792Z,8.68
2022-08-17T15:03:11.867Z,8.43
2022-08-17T15:05:39.320Z,8.57
2022-08-17T15:08:24.126Z,8.20
2022-08-17T15:10:54.282Z,7.15
2022-08-17T15:13:27.757Z,6.18
2022-08-17T15:15:54.859Z,7.00
2022-08-17T15:18:21.789Z,7.28
2022-08-17T15:20:50.183Z,6.88
2022-08-17T15:23:20.778Z,6.93
2022-08-17T15:25:53.675Z,7.47
2022-08-17T15:28:23.294Z,7.10
2022-08-17T15:30:51.357Z,9.40
2022-08-17T15:33:33.570Z,7.80
2022-08-17T15:36:03.705Z,8.80
2022-08-17T15:38:34.068Z,7.90
2022-08-17T15:41:35.733Z,7.10
2022-08-17T15:44:03.000Z,7.25
2022-08-17T15:46:29.707Z,9.85
2022-08-17T15:49:05.761Z,10.23
2022-08-17T15:51:35.684Z,8.02
2022-08-17T15:54:17.258Z,7.20
2022-08-17T15:56:48.018Z,7.75
2022-08-17T15:59:14.723Z,7.32
2022-08-17T16:03:14.041Z,10.45
2022-08-17T16:04:30.867Z,8.10
2022-08-17T16:06:59.728Z,9.13
2022-08-17T16:09:26.588Z,7.43
2022-08-17T16:11:55.445Z,7.15
2022-08-17T16:14:24.077Z,7.13
2022-08-17T16:16:54.306Z,8.68
2022-08-17T16:19:21.044Z,8.02
2022-08-17T16:21:47.791Z,7.50
2022-08-17T16:24:14.875Z,9.52
2022-08-17T16:26:42.824Z,7.88
2022-08-17T16:29:10.781Z,8.65
2022-08-17T16:31:41.990Z,8.00
2022-08-17T16:34:17.482Z,9.20
2022-08-17T16:36:55.168Z,8.75
2022-08-17T16:39:28.420Z,10.55
2022-08-17T16:41:56.700Z,10.02
2022-08-17T16:44:23.554Z,7.63
2022-08-17T16:46:50.655Z,7.38
2022-08-17T16:49:35.146Z,8.55
2022-08-17T16:52:03.962Z,10.75
2022-08-17T16:54:30.699Z,8.38
2022-08-17T16:56:57.406Z,9.52
2022-08-17T16:59:31.180Z,9.35
2022-08-17T17:05:31.277Z,11.05
2022-08-17T17:08:04.143Z,10.85
2022-08-17T17:10:49.448Z,8.50
2022-08-17T17:13:25.187Z,9.23
2022-08-17T17:16:06.660Z,16.10
2022-08-17T17:19:05.035Z,8.75
2022-08-17T17:22:01.632Z,7.97
2022-08-17T17:24:39.916Z,9.02
2022-08-17T17:27:20.325Z,11.02
2022-08-17T17:30:07.777Z,14.50
2022-08-17T17:33:00.759Z,10.80
2022-08-17T17:35:53.891Z,9.88
2022-08-17T17:38:29.212Z,8.95
2022-08-17T17:41:07.612Z,10.57
2022-08-17T17:43:39.687Z,11.95
2022-08-17T17:46:28.554Z,11.52
2022-08-17T17:49:00.552Z,11.20
2022-08-17T17:52:08.001Z,9.30
2022-08-17T17:55:04.460Z,9.65
2022-08-17T17:57:37.185Z,13.85
2022-08-17T18:00:15.605Z,11.10
2022-08-17T18:02:54.153Z,9.23
2022-08-17T18:05:47.673Z,9.23
2022-08-17T18:08:32.090Z,14.20
2022-08-17T18:11:24.136Z,13.27
2022-08-17T18:14:02.490Z,11.93
2022-08-17T18:16:32.886Z,10.30
2022-08-17T18:19:00.770Z,9.60
2022-08-17T18:21:40.155Z,11.20
2022-08-17T18:24:10.783Z,11.07
2022-08-17T18:26:50.619Z,10.30
2022-08-17T18:29:31.976Z,9.63
2022-08-17T18:32:16.915Z,9.10
2022-08-17T18:34:49.518Z,11.77
2022-08-17T18:37:45.592Z,9.07
2022-08-17T18:40:20.748Z,10.05
2022-08-17T18:43:14.200Z,10.52
2022-08-17T18:45:53.558Z,9.82
2022-08-17T18:48:33.890Z,10.80
2022-08-17T18:51:40.366Z,8.07
2022-08-17T18:54:23.752Z,9.20
2022-08-17T18:56:50.476Z,10.00
2022-08-17T18:59:28.854Z,10.73
2022-08-17T19:02:45.085Z,11.10
2022-08-17T19:05:13.556Z,10.48
2022-08-17T19:07:46.735Z,10.32
2022-08-17T19:10:46.121Z,9.40
2022-08-17T19:13:24.299Z,9.82
2022-08-17T19:16:15.745Z,9.88
2022-08-17T19:18:52.654Z,10.40
2022-08-17T19:21:25.639Z,11.70
2022-08-17T19:24:22.631Z,12.63
2022-08-17T19:26:58.942Z,9.48
2022-08-17T19:29:37.501Z,10.30
2022-08-17T19:32:07.073Z,10.55
2022-08-17T19:34:36.984Z,9.65
2022-08-17T19:37:12.685Z,9.90
2022-08-17T19:39:50.483Z,11.73
2022-08-17T19:42:55.562Z,13.75
2022-08-17T19:45:56.241Z,11.93
2022-08-17T19:48:40.946Z,11.07
2022-08-17T19:51:17.766Z,10.50
2022-08-17T19:54:16.140Z,9.65
2022-08-17T19:57:20.294Z,10.27
2022-08-17T20:00:13.621Z,12.18
2022-08-17T20:03:07.533Z,10.73
2022-08-17T20:06:01.414Z,10.68
2022-08-17T20:08:39.406Z,10.88
2022-08-17T20:11:31.486Z,12.55
2022-08-17T20:14:14.946Z,10.65
2022-08-17T20:16:41.858Z,9.88
2022-08-17T20:19:19.850Z,10.20
2022-08-17T20:21:54.056Z,11.93
2022-08-17T20:24:25.785Z,10.43
2022-08-17T20:26:59.972Z,10.18
2022-08-17T20:29:51.728Z,10.30
2022-08-17T20:32:28.750Z,10.02
2022-08-17T20:35:41.890Z,9.43
2022-08-17T20:38:36.235Z,10.15
2022-08-17T20:41:03.968Z,9.50
2022-08-17T20:43:33.652Z,10.23
2022-08-17T20:46:10.358Z,10.60
2022-08-17T20:48:42.790Z,9.77
2022-08-17T20:51:33.366Z,9.90
2022-08-17T20:54:07.548Z,9.20
2022-08-17T20:56:43.578Z,10.15
2022-08-17T20:59:25.999Z,10.40
2022-08-17T21:02:18.743Z,10.73
2022-08-17T21:04:53.039Z,11.52
2022-08-17T21:07:41.189Z,11.10
2022-08-17T21:10:10.520Z,11.05
2022-08-17T21:13:08.200Z,14.32
2022-08-17T21:16:08.975Z,10.10
2022-08-17T21:18:52.875Z,11.20
2022-08-17T21:21:41.250Z,9.82
2022-08-17T21:24:28.200Z,9.10
2022-08-17T21:27:05.445Z,10.18
2022-08-17T21:29:38.421Z,10.30
2022-08-17T21:32:09.511Z,10.90
2022-08-17T21:34:43.753Z,10.43
2022-08-17T21:37:23.541Z,11.27
2022-08-17T21:40:19.106Z,11.20
2022-08-17T21:42:49.517Z,10.20
2022-08-17T21:45:29.069Z,10.38
2022-08-17T21:48:11.609Z,10.55
2022-08-17T21:50:41.683Z,10.32
2022-08-17T21:53:22.011Z,12.05
2022-08-17T21:55:50.331Z,10.57
2022-08-17T21:58:33.418Z,10.85
2022-08-17T22:01:28.693Z,10.50
2022-08-17T22:03:58.804Z,11.95
2022-08-17T22:06:35.972Z,11.93
2022-08-17T22:09:25.776Z,12.15
2022-08-17T22:12:04.728Z,11.40
2022-08-17T22:14:53.095Z,11.52
2022-08-17T22:17:28.661Z,10.65
2022-08-17T22:20:01.996Z,12.23
2022-08-17T22:22:34.508Z,11.35
2022-08-17T22:25:05.793Z,11.60
2022-08-17T22:27:54.707Z,12.27
2022-08-17T22:30:27.565Z,13.20
2022-08-17T22:32:55.514Z,11.88
2022-08-17T22:35:42.270Z,12.93
2022-08-17T22:38:21.170Z,11.50
2022-08-17T22:40:50.947Z,12.23
2022-08-17T22:43:25.873Z,14.13
2022-08-17T22:45:57.510Z,13.00
2022-08-17T22:48:27.562Z,11.15
2022-08-17T22:51:12.578Z,12.40
2022-08-17T22:54:08.658Z,11.90
2022-08-17T22:56:54.745Z,11.02
2022-08-17T23:00:00.679Z,11.93
2022-08-17T23:02:34.422Z,10.55
2022-08-17T23:07:37.149Z,11.55
2022-08-17T23:10:06.591Z,11.48
2022-08-17T23:12:39.005Z,12.73
2022-08-17T23:15:14.442Z,12.05
2022-08-17T23:17:42.183Z,13.35
2022-08-17T23:20:14.160Z,13.82
2022-08-17T23:22:52.577Z,13.25
2022-08-17T23:25:27.891Z,13.02
2022-08-17T23:27:55.324Z,13.85
2022-08-17T23:30:25.445Z,13.05
2022-08-17T23:32:54.318Z,12.95
2022-08-17T23:35:39.917Z,12.60
2022-08-17T23:38:09.380Z,13.48
2022-08-17T23:40:36.503Z,14.50
2022-08-17T23:43:09.807Z,13.38
2022-08-17T23:45:44.353Z,12.50
2022-08-17T23:48:11.080Z,14.18
2022-08-17T23:50:38.429Z,13.80
2022-08-17T23:53:06.663Z,13.60
2022-08-17T23:55:34.719Z,14.80
2022-08-17T23:58:02.866Z,13.57
